Time;durP1;ratioP1;P1;durP2;ratioP2;P2;SDS_P1;SDS_P2;PMS_P1;PMS_P2;Temp;Humidity;BMP_temperature;BMP_pressure;BME280_temperature;BME280_humidity;BME280_pressure;Samples;Min_cycle;Max_cycle;Signal;HPM_P1;HPM_P2
2023/09/21 00:01:13;;;;;;;;;;;;;;;22.76;50.54;100970.63;7398329;19;1557;-44
2023/09/21 00:03:44;;;;;;;;;;;;;;;22.73;50.31;100970.09;7395301;19;1943;-45
2023/09/21 00:06:13;;;;;;;;;;;;;;;22.71;50.43;100977.50;7396416;19;1517;-44
2023/09/21 00:08:41;;;;;;;;;;;;;;;22.76;50.47;100978.72;7396726;19;1874;-43
2023/09/21 00:11:09;;;;;;;;;;;;;;;22.76;50.48;100969.75;7397359;19;1790;-43
2023/09/21 00:13:39;;;;;;;;;;;;;;;22.76;50.59;100951.75;7381744;19;1785;-43
2023/09/21 00:16:11;;;;;;;;;;;;;;;22.82;50.76;100953.84;7396157;19;1382;-44
2023/09/21 00:18:40;;;;;;;;;;;;;;;22.82;50.32;100971.88;7396221;19;1839;-44
2023/09/21 00:21:13;;;;;;;;;;;;;;;22.78;50.58;100956.97;7395929;19;1453;-43
2023/09/21 00:23:43;;;;;;;;;;;;;;;22.74;50.46;100971.78;7394970;19;1882;-43
2023/09/21 00:26:12;;;;;;;;;;;;;;;22.75;50.74;100968.09;7396865;19;1726;-43
2023/09/21 00:28:40;;;;;;;;;;;;;;;22.79;50.32;100961.38;7396711;19;1634;-43
2023/09/21 00:31:09;;;;;;;;;;;;;;;22.74;50.42;100964.56;7395933;19;1793;-44
2023/09/21 00:33:38;;;;;;;;;;;;;;;22.70;50.54;100970.38;7396477;19;1376;-43
2023/09/21 00:36:09;;;;;;;;;;;;;;;22.64;50.31;100952.97;7397296;19;1833;-43
2023/09/21 00:38:40;;;;;;;;;;;;;;;22.66;50.38;100963.63;7398002;19;1092;-44
2023/09/21 00:41:08;;;;;;;;;;;;;;;22.66;50.52;100967.19;7395776;19;1519;-43
2023/09/21 00:43:36;;;;;;;;;;;;;;;22.62;50.63;100972.03;7394232;19;1879;-44
2023/09/21 00:46:05;;;;;;;;;;;;;;;22.60;50.57;100998.28;7395021;19;1798;-43
2023/09/21 00:48:38;;;;;;;;;;;;;;;22.61;50.57;100972.19;7395399;19;1700;-43
2023/09/21 00:51:09;;;;;;;;;;;;;;;22.57;50.41;100971.63;7396128;19;1741;-44
2023/09/21 00:53:44;;;;;;;;;;;;;;;22.60;50.56;100976.72;7395154;19;1721;-44
2023/09/21 00:56:13;;;;;;;;;;;;;;;22.60;50.51;100973.16;7394569;19;1836;-43
2023/09/21 00:58:44;;;;;;;;;;;;;;;22.59;50.43;100975.03;7395078;19;1669;-43
2023/09/21 01:01:18;;;;;;;;;;;;;;;22.57;50.45;100971.63;7396533;19;1625;-44
2023/09/21 01:03:48;;;;;;;;;;;;;;;22.55;50.45;100979.03;7394590;19;1864;-44
2023/09/21 01:06:18;;;;;;;;;;;;;;;22.54;50.66;100982.75;7393562;19;2443;-45
2023/09/21 01:08:49;;;;;;;;;;;;;;;22.52;50.65;100967.69;7394856;19;1865;-43
2023/09/21 01:11:19;;;;;;;;;;;;;;;22.50;50.42;100965.19;7395538;19;1858;-44
2023/09/21 01:13:47;;;;;;;;;;;;;;;22.52;50.41;100952.41;7381434;19;1690;-44
2023/09/21 01:16:17;;;;;;;;;;;;;;;22.54;50.40;100944.13;7394349;19;1751;-45
2023/09/21 01:18:46;;;;;;;;;;;;;;;22.52;50.46;100952.41;7393723;19;1580;-44
2023/09/21 01:21:17;;;;;;;;;;;;;;;22.53;50.47;100954.06;7394426;19;1644;-44
2023/09/21 01:23:49;;;;;;;;;;;;;;;22.52;50.40;100960.47;7394110;19;1855;-44
2023/09/21 01:26:18;;;;;;;;;;;;;;;22.48;50.47;100945.59;7396548;19;1086;-44
2023/09/21 01:28:47;;;;;;;;;;;;;;;22.47;50.55;100946.63;7391674;19;1962;-45
2023/09/21 01:31:16;;;;;;;;;;;;;;;22.48;50.35;100950.97;7395216;19;1551;-44
2023/09/21 01:33:44;;;;;;;;;;;;;;;22.49;50.47;100941.91;7392743;19;1572;-44
2023/09/21 01:36:15;;;;;;;;;;;;;;;22.47;50.51;100945.78;7394312;19;1501;-44
2023/09/21 01:38:44;;;;;;;;;;;;;;;22.47;50.54;100938.53;7396299;19;1043;-44
2023/09/21 01:41:15;;;;;;;;;;;;;;;22.43;50.46;100937.97;7394759;19;1933;-44
2023/09/21 01:43:44;;;;;;;;;;;;;;;22.43;50.72;100942.53;7391869;19;1899;-43
2023/09/21 01:46:14;;;;;;;;;;;;;;;22.43;50.58;100940.69;7393939;19;1679;-45
2023/09/21 01:48:42;;;;;;;;;;;;;;;22.42;50.46;100936.31;7394050;19;1551;-44
2023/09/21 01:51:12;;;;;;;;;;;;;;;22.40;50.36;100932.03;7393962;19;1770;-44
2023/09/21 01:53:41;;;;;;;;;;;;;;;22.47;50.36;100932.31;7394145;19;1479;-44
2023/09/21 01:56:10;;;;;;;;;;;;;;;22.48;50.34;100939.38;7393408;19;1453;-45
2023/09/21 01:58:41;;;;;;;;;;;;;;;22.44;50.34;100917.25;7394163;19;2485;-44
2023/09/21 02:01:09;;;;;;;;;;;;;;;22.43;50.35;100937.16;7394696;19;1627;-43
2023/09/21 02:03:37;;;;;;;;;;;;;;;22.42;50.53;100927.34;7391578;19;1846;-43
2023/09/21 02:06:06;;;;;;;;;;;;;;;22.43;50.50;100929.06;7394594;19;1674;-43
2023/09/21 02:08:34;;;;;;;;;;;;;;;22.42;50.41;100933.59;7400116;19;1489;-43
2023/09/21 02:11:05;;;;;;;;;;;;;;;22.40;50.54;100929.34;7399973;19;1833;-44
2023/09/21 02:13:34;;;;;;;;;;;;;;;22.38;50.55;100937.63;7399801;19;1519;-44
2023/09/21 02:16:06;;;;;;;;;;;;;;;22.38;50.50;100916.06;7382427;19;2454;-45
2023/09/21 02:18:34;;;;;;;;;;;;;;;22.38;50.56;100939.44;7401089;19;1753;-43
2023/09/21 02:21:07;;;;;;;;;;;;;;;22.38;50.47;100934.06;7400157;19;1563;-45
2023/09/21 02:23:37;;;;;;;;;;;;;;;22.43;50.67;100942.53;7397457;19;1877;-45
2023/09/21 02:26:06;;;;;;;;;;;;;;;22.51;50.67;100955.25;7400384;19;1820;-45
2023/09/21 02:28:35;;;;;;;;;;;;;;;22.48;50.38;100940.19;7399511;19;1505;-45
2023/09/21 02:31:06;;;;;;;;;;;;;;;22.38;50.23;100945.69;7399734;19;1708;-44
2023/09/21 02:33:35;;;;;;;;;;;;;;;22.36;50.23;100942.31;7400384;19;1579;-45
2023/09/21 02:36:03;;;;;;;;;;;;;;;22.35;50.45;100934.38;7400363;19;1553;-45
2023/09/21 02:38:32;;;;;;;;;;;;;;;22.32;50.48;100934.66;7400580;19;1654;-44
2023/09/21 02:41:02;;;;;;;;;;;;;;;22.35;50.38;100934.38;7396556;19;1442;-45
2023/09/21 02:43:30;;;;;;;;;;;;;;;22.35;50.30;100940.59;7396466;19;1845;-45
2023/09/21 02:45:58;;;;;;;;;;;;;;;22.34;50.38;100929.97;7399700;19;1842;-45
2023/09/21 02:48:29;;;;;;;;;;;;;;;22.35;50.35;100934.38;7398611;19;1239;-44
2023/09/21 02:50:58;;;;;;;;;;;;;;;22.32;50.46;100934.66;7399614;19;1602;-43
2023/09/21 02:53:27;;;;;;;;;;;;;;;22.31;50.42;100938.38;7398229;19;1359;-45
2023/09/21 02:55:55;;;;;;;;;;;;;;;22.30;50.33;100936.66;7399413;19;2018;-45
2023/09/21 02:58:23;;;;;;;;;;;;;;;22.30;50.21;100921.34;7399121;19;1462;-45
2023/09/21 03:00:52;;;;;;;;;;;;;;;22.31;50.36;100927.59;7395826;19;2413;-44
2023/09/21 03:03:21;;;;;;;;;;;;;;;22.34;50.56;100916.50;7397902;19;1841;-45
2023/09/21 03:05:52;;;;;;;;;;;;;;;22.31;50.21;100933.00;7398749;19;1768;-45
2023/09/21 03:08:22;;;;;;;;;;;;;;;22.28;50.24;100928.72;7398302;19;1633;-43
2023/09/21 03:10:52;;;;;;;;;;;;;;;22.24;50.26;100921.97;7398538;19;1500;-45
2023/09/21 03:13:21;;;;;;;;;;;;;;;22.27;50.24;100927.06;7399021;19;1373;-45
2023/09/21 03:15:50;;;;;;;;;;;;;;;22.29;50.16;100940.38;7383265;19;1702;-44
2023/09/21 03:18:19;;;;;;;;;;;;;;;22.24;50.29;100917.44;7398483;19;1587;-45
2023/09/21 03:20:48;;;;;;;;;;;;;;;22.23;50.05;100915.69;7396345;19;1647;-45
2023/09/21 03:23:18;;;;;;;;;;;;;;;22.22;50.13;100923.94;7397200;19;1845;-45
2023/09/21 03:25:48;;;;;;;;;;;;;;;22.21;50.21;100925.78;7398544;19;1421;-45
2023/09/21 03:28:19;;;;;;;;;;;;;;;22.19;50.30;100925.09;7399439;19;1827;-44
2023/09/21 03:30:48;;;;;;;;;;;;;;;22.20;50.28;100923.22;7399660;19;1548;-44
2023/09/21 03:33:18;;;;;;;;;;;;;;;22.18;50.21;100927.94;7399331;19;1769;-45
2023/09/21 03:35:46;;;;;;;;;;;;;;;22.16;50.28;100925.41;7398668;19;1860;-44
2023/09/21 03:38:18;;;;;;;;;;;;;;;22.17;50.16;100932.47;7398234;19;1868;-45
2023/09/21 03:40:49;;;;;;;;;;;;;;;22.19;50.15;100924.25;7397165;19;1780;-45
2023/09/21 03:43:18;;;;;;;;;;;;;;;22.20;50.33;100934.88;7397963;19;1835;-44
2023/09/21 03:45:47;;;;;;;;;;;;;;;22.17;50.13;100932.47;7397809;19;1796;-45
2023/09/21 03:48:16;;;;;;;;;;;;;;;22.15;50.26;100928.25;7395520;19;1734;-44
2023/09/21 03:50:45;;;;;;;;;;;;;;;22.15;50.19;100921.00;7397254;19;1675;-45
2023/09/21 03:53:13;;;;;;;;;;;;;;;22.16;50.07;100925.41;7395124;19;1819;-43
2023/09/21 03:55:42;;;;;;;;;;;;;;;22.22;50.37;100918.53;7392060;19;1606;-45
2023/09/21 03:58:14;;;;;;;;;;;;;;;22.21;50.59;100933.88;7394664;19;1621;-45
2023/09/21 04:00:46;;;;;;;;;;;;;;;22.21;50.24;100923.09;7397448;19;1900;-45
2023/09/21 04:03:16;;;;;;;;;;;;;;;22.34;49.99;100928.16;7396639;19;1846;-44
2023/09/21 04:05:44;;;;;;;;;;;;;;;22.58;50.30;100919.44;7390597;19;1755;-46
2023/09/21 04:08:13;;;;;;;;;;;;;;;22.54;49.73;100926.13;7392581;19;1660;-43
2023/09/21 04:10:41;;;;;;;;;;;;;;;22.63;49.38;100922.50;7392246;19;1581;-43
2023/09/21 04:13:09;;;;;;;;;;;;;;;22.71;49.23;100928.97;7393825;19;1702;-44
2023/09/21 04:15:40;;;;;;;;;;;;;;;22.59;49.48;100939.97;7382649;19;1800;-43
2023/09/21 04:18:09;;;;;;;;;;;;;;;22.64;49.17;100917.94;7395839;19;1523;-44
2023/09/21 04:20:40;;;;;;;;;;;;;;;22.77;49.13;100929.19;7396956;19;1319;-43
2023/09/21 04:23:09;;;;;;;;;;;;;;;22.64;49.14;100928.72;7397536;19;1858;-44
2023/09/21 04:25:38;;;;;;;;;;;;;;;22.70;48.96;100928.13;7393218;19;1927;-44
2023/09/21 04:28:07;;;;;;;;;;;;;;;22.84;49.11;100940.19;7396549;19;1540;-45
2023/09/21 04:30:35;;;;;;;;;;;;;;;22.76;48.89;100937.41;7395025;19;1740;-44
2023/09/21 04:33:07;;;;;;;;;;;;;;;22.58;49.16;100935.59;7396053;19;1390;-44
2023/09/21 04:35:36;;;;;;;;;;;;;;;22.71;49.17;100929.81;7394760;19;1432;-44
2023/09/21 04:38:05;;;;;;;;;;;;;;;23.21;48.03;100934.56;7393321;19;1504;-45
2023/09/21 04:40:33;;;;;;;;;;;;;;;23.18;47.46;100936.75;7396199;19;1395;-43
2023/09/21 04:43:01;;;;;;;;;;;;;;;22.76;48.26;100946.38;7396367;19;1861;-44
2023/09/21 04:45:32;;;;;;;;;;;;;;;22.55;48.52;100941.28;7396541;19;1460;-44
2023/09/21 04:48:03;;;;;;;;;;;;;;;22.44;48.76;100942.38;7396081;19;1311;-45
2023/09/21 04:50:34;;;;;;;;;;;;;;;22.39;48.92;100952.75;7396087;19;1962;-44
2023/09/21 04:53:03;;;;;;;;;;;;;;;22.31;48.74;100947.28;7395300;19;1912;-44
2023/09/21 04:55:31;;;;;;;;;;;;;;;22.33;48.83;100942.59;7396492;19;1733;-43
2023/09/21 04:58:00;;;;;;;;;;;;;;;22.26;48.82;100936.13;7397825;19;1116;-45
2023/09/21 05:00:29;;;;;;;;;;;;;;;22.28;48.96;100944.06;7396240;19;1615;-45
2023/09/21 05:02:57;;;;;;;;;;;;;;;22.31;49.05;100950.00;7396276;19;1908;-44
2023/09/21 05:05:26;;;;;;;;;;;;;;;22.81;48.32;100945.91;7388726;19;1920;-44
2023/09/21 05:07:57;;;;;;;;;;;;;;;24.37;45.17;100954.78;7391283;19;1792;-45
2023/09/21 05:10:26;;;;;;;;;;;;;;;25.10;43.56;100945.03;7395531;19;1833;-46
2023/09/21 05:12:55;;;;;;;;;;;;;;;25.28;43.16;100942.16;7394207;19;1389;-47
2023/09/21 05:15:23;;;;;;;;;;;;;;;24.74;44.28;100946.25;7379079;19;1253;-47
2023/09/21 05:17:51;;;;;;;;;;;;;;;24.23;45.36;100945.47;7394778;19;1516;-47
2023/09/21 05:20:20;;;;;;;;;;;;;;;23.85;46.26;100933.38;7395271;19;1762;-59
2023/09/21 05:22:48;;;;;;;;;;;;;;;23.53;47.23;100940.31;7392965;19;3114;-46
2023/09/21 05:25:19;;;;;;;;;;;;;;;23.34;47.61;100946.81;7394372;19;1857;-46
2023/09/21 05:27:47;;;;;;;;;;;;;;;23.19;48.19;100947.38;7395394;19;1630;-45
2023/09/21 05:30:19;;;;;;;;;;;;;;;23.10;48.42;100944.78;7394554;19;1524;-46
2023/09/21 05:32:47;;;;;;;;;;;;;;;22.94;49.14;100930.16;7395829;19;1190;-46
2023/09/21 05:35:16;;;;;;;;;;;;;;;23.08;48.98;100953.06;7389804;19;1555;-44
2023/09/21 05:37:44;;;;;;;;;;;;;;;23.18;49.26;100939.47;7388669;19;2261;-43
2023/09/21 05:40:13;;;;;;;;;;;;;;;23.10;49.29;100956.44;7391410;19;1527;-44
2023/09/21 05:42:45;;;;;;;;;;;;;;;23.09;49.56;100937.69;7395634;19;1519;-44
2023/09/21 05:45:13;;;;;;;;;;;;;;;23.10;49.71;100951.03;7398737;19;1834;-44
2023/09/21 05:47:41;;;;;;;;;;;;;;;23.13;49.71;100945.31;7400255;19;1372;-44
2023/09/21 05:50:13;;;;;;;;;;;;;;;23.15;49.88;100948.69;7400021;19;1383;-44
2023/09/21 05:52:41;;;;;;;;;;;;;;;22.97;50.46;100945.16;7400284;19;1389;-44
2023/09/21 05:55:12;;;;;;;;;;;;;;;22.88;50.82;100946.97;7396553;19;2084;-44
2023/09/21 05:57:43;;;;;;;;;;;;;;;23.02;50.83;100946.44;7399432;19;1108;-44
2023/09/21 06:00:18;;;;;;;;;;;;;;;23.18;50.39;100959.19;7392130;19;1246;-45
2023/09/21 06:02:46;;;;;;;;;;;;;;;23.27;50.25;100951.13;7399720;19;1766;-43
2023/09/21 06:05:17;;;;;;;;;;;;;;;23.15;50.47;100955.94;7392900;19;1843;-44
2023/09/21 06:07:45;;;;;;;;;;;;;;;23.21;50.63;100952.63;7396649;19;1487;-43
2023/09/21 06:10:14;;;;;;;;;;;;;;;23.29;50.51;100957.22;7398216;19;1710;-45
2023/09/21 06:12:42;;;;;;;;;;;;;;;23.20;51.31;100950.94;7397568;19;1799;-44
2023/09/21 06:15:11;;;;;;;;;;;;;;;23.37;50.86;100950.00;7382360;19;1500;-43
2023/09/21 06:17:42;;;;;;;;;;;;;;;23.32;51.23;100955.06;7398690;19;1385;-44
2023/09/21 06:20:11;;;;;;;;;;;;;;;23.22;51.57;100954.31;7399015;19;1373;-45
2023/09/21 06:22:39;;;;;;;;;;;;;;;23.17;51.84;100949.38;7399988;19;1725;-44
2023/09/21 06:25:10;;;;;;;;;;;;;;;23.17;51.88;100951.25;7397020;19;1865;-44
2023/09/21 06:27:39;;;;;;;;;;;;;;;23.23;51.90;100951.44;7399457;19;1752;-43
2023/09/21 06:30:08;;;;;;;;;;;;;;;23.33;51.80;100945.94;7396988;19;1575;-43
2023/09/21 06:32:36;;;;;;;;;;;;;;;23.31;51.81;100942.56;7397971;19;1601;-44
2023/09/21 06:35:08;;;;;;;;;;;;;;;23.30;51.86;100946.28;7397307;19;1755;-45
2023/09/21 06:37:37;;;;;;;;;;;;;;;23.30;51.98;100940.00;7398958;19;1811;-44
2023/09/21 06:40:06;;;;;;;;;;;;;;;23.37;51.85;100936.50;7393463;19;1717;-44
2023/09/21 06:42:35;;;;;;;;;;;;;;;23.65;51.10;100932.78;7396662;19;1594;-45
2023/09/21 06:45:03;;;;;;;;;;;;;;;23.71;51.04;100930.25;7394187;19;1862;-44
2023/09/21 06:47:31;;;;;;;;;;;;;;;23.73;51.13;100933.66;7396607;19;1607;-44
2023/09/21 06:50:00;;;;;;;;;;;;;;;23.68;51.14;100937.88;7395657;19;1413;-44
2023/09/21 06:52:31;;;;;;;;;;;;;;;23.66;50.99;100923.69;7394156;19;1658;-44
2023/09/21 06:55:00;;;;;;;;;;;;;;;23.71;51.00;100934.81;7400252;19;1507;-44
2023/09/21 06:57:28;;;;;;;;;;;;;;;23.78;50.65;100944.00;7401937;19;1177;-43
2023/09/21 06:59:57;;;;;;;;;;;;;;;23.75;50.88;100928.94;7398763;19;1788;-44
2023/09/21 07:02:26;;;;;;;;;;;;;;;23.81;50.68;100933.72;7399774;19;1492;-44
2023/09/21 07:04:54;;;;;;;;;;;;;;;23.84;50.62;100932.56;7397860;19;1849;-44
2023/09/21 07:07:23;;;;;;;;;;;;;;;23.77;50.69;100918.84;7400421;19;1504;-45
2023/09/21 07:09:54;;;;;;;;;;;;;;;23.75;50.81;100918.13;7399593;19;1583;-45
2023/09/21 07:12:23;;;;;;;;;;;;;;;23.72;51.05;100918.47;7399780;19;1635;-44
2023/09/21 07:14:52;;;;;;;;;;;;;;;23.78;50.85;100944.00;7399888;19;1646;-44
2023/09/21 07:17:22;;;;;;;;;;;;;;;23.78;51.04;100920.53;7385575;19;1617;-44
2023/09/21 07:19:50;;;;;;;;;;;;;;;23.78;51.03;100923.25;7397800;19;1338;-44
2023/09/21 07:22:19;;;;;;;;;;;;;;;23.87;50.76;100920.56;7400295;19;1880;-45
2023/09/21 07:24:47;;;;;;;;;;;;;;;23.96;50.76;100925.00;7399131;19;1854;-44
2023/09/21 07:27:18;;;;;;;;;;;;;;;23.99;50.61;100924.66;7399430;19;1761;-44
2023/09/21 07:29:47;;;;;;;;;;;;;;;24.17;50.10;100922.69;7399170;19;1784;-44
2023/09/21 07:32:15;;;;;;;;;;;;;;;24.35;49.70;100929.78;7398358;19;1742;-45
2023/09/21 07:34:43;;;;;;;;;;;;;;;24.23;50.05;100926.56;7398228;19;1448;-44
2023/09/21 07:37:12;;;;;;;;;;;;;;;24.23;50.08;100937.38;7399411;19;1533;-44
2023/09/21 07:39:38;;;;;;;;;;;;;;;24.16;50.18;100926.38;7398939;19;1685;-44
2023/09/21 07:42:07;;;;;;;;;;;;;;;24.10;50.48;100937.84;7398257;19;1542;-44
2023/09/21 07:44:38;;;;;;;;;;;;;;;24.10;50.53;100921.66;7397060;19;1865;-44
2023/09/21 07:47:07;;;;;;;;;;;;;;;24.18;50.30;100918.97;7398808;19;1480;-44
2023/09/21 07:49:35;;;;;;;;;;;;;;;24.29;50.26;100927.75;7399538;19;1554;-44
2023/09/21 07:52:04;;;;;;;;;;;;;;;24.20;50.35;100911.53;7399376;19;1598;-44
2023/09/21 07:54:33;;;;;;;;;;;;;;;24.27;50.50;100933.31;7398495;19;1946;-45
2023/09/21 07:57:03;;;;;;;;;;;;;;;24.22;50.25;100914.91;7398923;19;1726;-44
2023/09/21 07:59:31;;;;;;;;;;;;;;;24.27;50.48;100916.25;7396968;19;1777;-44
2023/09/21 08:02:03;;;;;;;;;;;;;;;24.36;50.18;100907.16;7397279;19;1378;-44
2023/09/21 08:04:31;;;;;;;;;;;;;;;24.35;50.39;100897.34;7396469;19;1855;-44
2023/09/21 08:07:00;;;;;;;;;;;;;;;24.37;50.14;100896.19;7397134;19;1617;-44
2023/09/21 08:09:29;;;;;;;;;;;;;;;24.38;49.98;100905.97;7397369;19;1515;-43
2023/09/21 08:11:57;;;;;;;;;;;;;;;24.31;50.22;100896.00;7398573;19;1533;-45
2023/09/21 08:14:26;;;;;;;;;;;;;;;24.33;50.14;100905.66;7397928;19;1515;-45
2023/09/21 08:16:55;;;;;;;;;;;;;;;24.25;50.72;100907.47;7383422;19;1731;-45
2023/09/21 08:19:26;;;;;;;;;;;;;;;24.29;50.54;100904.28;7397502;19;1729;-45
2023/09/21 08:21:54;;;;;;;;;;;;;;;24.35;50.50;100898.22;7396413;19;1671;-45
2023/09/21 08:24:23;;;;;;;;;;;;;;;24.33;50.53;100908.34;7397227;19;1856;-45
2023/09/21 08:26:51;;;;;;;;;;;;;;;24.31;50.64;100896.00;7398340;19;1801;-44
2023/09/21 08:29:21;;;;;;;;;;;;;;;24.26;50.76;100892.97;7398252;19;1601;-45
2023/09/21 08:31:49;;;;;;;;;;;;;;;24.32;50.78;100892.31;7397834;19;1594;-45
2023/09/21 08:34:18;;;;;;;;;;;;;;;24.25;50.85;100891.28;7398041;19;1717;-45
2023/09/21 08:36:49;;;;;;;;;;;;;;;24.34;50.58;100884.88;7396361;19;1821;-45
2023/09/21 08:39:18;;;;;;;;;;;;;;;24.41;50.13;100881.31;7396864;19;1816;-45
2023/09/21 08:41:49;;;;;;;;;;;;;;;24.32;50.50;100876.91;7395519;19;1654;-44
2023/09/21 08:44:19;;;;;;;;;;;;;;;24.28;50.80;100890.94;7397036;19;1650;-45
2023/09/21 08:46:48;;;;;;;;;;;;;;;24.45;50.16;100875.56;7398177;19;1536;-45
2023/09/21 08:49:16;;;;;;;;;;;;;;;24.53;49.95;100872.88;7396792;19;1635;-45
2023/09/21 08:51:45;;;;;;;;;;;;;;;24.51;49.85;100854.16;7395013;19;1322;-45
2023/09/21 08:54:16;;;;;;;;;;;;;;;24.51;49.93;100870.38;7395873;19;1248;-45
2023/09/21 08:56:45;;;;;;;;;;;;;;;24.36;50.03;100853.94;7394555;19;1346;-45
2023/09/21 08:59:13;;;;;;;;;;;;;;;24.45;49.78;100856.66;7395975;19;1544;-45
2023/09/21 09:01:42;;;;;;;;;;;;;;;24.37;49.92;100849.38;7396501;19;1661;-44
2023/09/21 09:04:11;;;;;;;;;;;;;;;24.42;50.22;100855.97;7397315;19;1567;-45
2023/09/21 09:06:40;;;;;;;;;;;;;;;24.47;50.01;100852.78;7395663;19;1861;-45
2023/09/21 09:09:08;;;;;;;;;;;;;;;24.43;50.26;100846.00;7396581;19;1453;-44
2023/09/21 09:11:44;;;;;;;;;;;;;;;24.47;50.28;100863.59;7396327;19;1805;-45
2023/09/21 09:14:18;;;;;;;;;;;;;;;24.48;49.90;100853.63;7396114;19;1456;-45
2023/09/21 09:16:46;;;;;;;;;;;;;;;24.53;50.08;100856.66;7388694;19;1792;-44
2023/09/21 09:19:15;;;;;;;;;;;;;;;24.41;50.53;100842.63;7403280;19;1817;-45
2023/09/21 09:21:44;;;;;;;;;;;;;;;24.48;50.21;100829.28;7403310;19;1463;-44
2023/09/21 09:24:13;;;;;;;;;;;;;;;24.51;50.27;100842.47;7403091;19;1377;-45
2023/09/21 09:26:44;;;;;;;;;;;;;;;24.50;49.90;100835.38;7401365;19;1851;-45
2023/09/21 09:29:13;;;;;;;;;;;;;;;24.55;50.19;100833.88;7399016;19;1757;-47
2023/09/21 09:31:44;;;;;;;;;;;;;;;24.55;50.52;100841.13;7382639;19;1739;-47
2023/09/21 09:34:17;;;;;;;;;;;;;;;24.45;51.09;100824.22;7402939;19;1520;-47
2023/09/21 09:36:49;;;;;;;;;;;;;;;24.50;50.89;100841.66;7402463;19;1432;-46
2023/09/21 09:39:19;;;;;;;;;;;;;;;24.55;50.86;100846.53;6886186;19;9999767;-46
2023/09/21 09:41:50;;;;;;;;;;;;;;;24.47;51.41;100827.59;7391840;19;1622;-47
2023/09/21 09:44:21;;;;;;;;;;;;;;;24.44;51.26;100826.06;7395029;19;1385;-47
2023/09/21 09:46:51;;;;;;;;;;;;;;;24.47;51.35;100833.84;7392512;19;1838;-47
2023/09/21 09:49:21;;;;;;;;;;;;;;;24.47;51.34;100836.56;7394080;19;1828;-47
2023/09/21 09:51:52;;;;;;;;;;;;;;;24.50;51.17;100836.22;7394122;19;1586;-47
2023/09/21 09:54:21;;;;;;;;;;;;;;;24.49;51.41;100826.41;7393892;19;1810;-47
2023/09/21 09:56:55;;;;;;;;;;;;;;;24.55;51.41;100836.59;7394418;19;1555;-47
2023/09/21 09:59:24;;;;;;;;;;;;;;;24.48;51.10;100838.22;7395547;19;1609;-47
2023/09/21 10:01:53;;;;;;;;;;;;;;;24.37;51.69;100819.66;7389984;19;1380;-40
2023/09/21 10:04:22;;;;;;;;;;;;;;;24.55;50.99;100814.97;7389168;19;1524;-41
2023/09/21 10:06:50;;;;;;;;;;;;;;;24.45;51.21;100829.63;7392570;19;1900;-41
2023/09/21 10:09:20;;;;;;;;;;;;;;;24.49;51.29;100822.84;7393526;19;1410;-40
2023/09/21 10:11:50;;;;;;;;;;;;;;;24.48;51.33;100822.00;7395139;19;1459;-41
2023/09/21 10:14:21;;;;;;;;;;;;;;;24.54;51.35;100824.06;7392468;19;1795;-38
2023/09/21 10:16:55;;;;;;;;;;;;;;;24.46;51.57;100825.91;7386814;19;1556;-38
2023/09/21 10:19:26;;;;;;;;;;;;;;;24.50;51.67;100819.16;7393709;19;1555;-38
2023/09/21 10:21:56;;;;;;;;;;;;;;;24.51;51.72;100823.56;7396589;19;1378;-38
2023/09/21 10:24:26;;;;;;;;;;;;;;;24.50;51.75;100819.16;7399649;19;1782;-38
2023/09/21 10:26:55;;;;;;;;;;;;;;;24.48;51.86;100805.78;7395560;19;1844;-38
2023/09/21 10:29:30;;;;;;;;;;;;;;;24.50;51.56;100792.97;7399730;19;1724;-38
2023/09/21 10:32:00;;;;;;;;;;;;;;;24.49;51.86;100809.34;7383179;19;1789;-38
2023/09/21 10:34:29;;;;;;;;;;;;;;;24.46;51.62;100797.00;7399885;19;1461;-38
2023/09/21 10:37:00;;;;;;;;;;;;;;;24.43;52.13;100794.63;7398261;19;1832;-38
2023/09/21 10:39:30;;;;;;;;;;;;;;;24.50;51.85;100789.41;7398770;19;1589;-38
2023/09/21 10:42:20;;;;;;;;;;;;;;;24.40;51.88;100781.47;7397691;19;1485;-38
2023/09/21 10:45:05;;;;;;;;;;;;;;;24.40;51.84;100770.66;7398913;19;2368;-38
2023/09/21 10:47:40;;;;;;;;;;;;;;;24.37;52.17;100781.81;7397827;19;1440;-38
2023/09/21 10:50:10;;;;;;;;;;;;;;;24.46;52.17;100786.19;7397161;19;1382;-38
2023/09/21 10:52:39;;;;;;;;;;;;;;;24.50;51.93;100770.50;7395096;19;1466;-38
2023/09/21 10:55:09;;;;;;;;;;;;;;;24.50;52.40;100776.75;7394896;19;1519;-38
2023/09/21 10:57:38;;;;;;;;;;;;;;;24.56;52.19;100770.66;7397934;19;1045;-38
2023/09/21 11:00:15;;;;;;;;;;;;;;;24.42;52.43;100757.81;7398478;19;1929;-38
2023/09/21 11:02:44;;;;;;;;;;;;;;;24.37;52.53;100771.88;7397727;19;1489;-38
2023/09/21 11:05:16;;;;;;;;;;;;;;;24.55;52.28;100769.00;7394726;19;1856;-38
2023/09/21 11:07:44;;;;;;;;;;;;;;;24.71;51.76;100761.84;7395944;19;1511;-38
2023/09/21 11:10:14;;;;;;;;;;;;;;;24.70;51.72;100760.16;7395499;19;1289;-38
2023/09/21 11:12:42;;;;;;;;;;;;;;;24.67;51.70;100753.25;7397196;19;1495;-38
2023/09/21 11:15:16;;;;;;;;;;;;;;;24.50;52.24;100755.13;7398374;19;1601;-38
2023/09/21 11:17:45;;;;;;;;;;;;;;;24.54;52.34;100753.78;7395256;19;2397;-38
2023/09/21 11:20:17;;;;;;;;;;;;;;;24.60;51.96;100753.06;7397570;19;1609;-38
2023/09/21 11:22:46;;;;;;;;;;;;;;;24.57;52.65;100745.34;7397584;19;1903;-38
2023/09/21 11:25:16;;;;;;;;;;;;;;;24.57;52.52;100741.75;7398472;19;1859;-38
2023/09/21 11:27:45;;;;;;;;;;;;;;;24.62;52.55;100747.50;7398682;19;1519;-38
2023/09/21 11:30:17;;;;;;;;;;;;;;;24.50;52.90;100738.91;7394992;19;1829;-38
2023/09/21 11:32:46;;;;;;;;;;;;;;;24.68;52.70;100740.56;7379999;19;1383;-38
2023/09/21 11:35:17;;;;;;;;;;;;;;;24.58;53.04;100732.66;7397042;19;1686;-38
2023/09/21 11:37:45;;;;;;;;;;;;;;;24.53;54.11;100727.78;7394235;19;1664;-38
2023/09/21 11:40:14;;;;;;;;;;;;;;;24.50;54.94;100722.69;7391873;19;1733;-38
2023/09/21 11:42:46;;;;;;;;;;;;;;;24.56;54.59;100718.47;7396194;19;1536;-38
2023/09/21 11:45:20;;;;;;;;;;;;;;;24.68;53.45;100729.75;7395122;19;1451;-38
2023/09/21 11:47:49;;;;;;;;;;;;;;;24.74;52.66;100715.53;7394686;19;1692;-38
2023/09/21 11:50:23;;;;;;;;;;;;;;;24.79;51.96;100722.09;7396178;19;1610;-38
2023/09/21 11:52:56;;;;;;;;;;;;;;;24.83;51.63;100722.59;7396703;19;1507;-38
2023/09/21 11:55:25;;;;;;;;;;;;;;;24.79;51.81;100714.00;7394951;19;1573;-39
2023/09/21 11:57:54;;;;;;;;;;;;;;;24.78;52.84;100724.97;7396394;19;1089;-39
2023/09/21 12:00:43;;;;;;;;;;;;;;;24.71;52.38;100707.75;7388654;19;1511;-38
2023/09/21 12:03:12;;;;;;;;;;;;;;;24.81;52.10;100716.53;7396165;19;1595;-38
2023/09/21 12:05:42;;;;;;;;;;;;;;;24.81;51.35;100713.81;7394905;19;1874;-38
2023/09/21 12:08:11;;;;;;;;;;;;;;;24.78;51.69;100706.03;7395847;19;1456;-38
2023/09/21 12:10:40;;;;;;;;;;;;;;;24.77;51.86;100713.31;7394776;19;1687;-37
2023/09/21 12:13:10;;;;;;;;;;;;;;;24.83;51.47;100698.25;7396281;19;1733;-37
2023/09/21 12:15:42;;;;;;;;;;;;;;;24.90;51.12;100707.34;7394339;19;1281;-37
2023/09/21 12:18:10;;;;;;;;;;;;;;;24.86;51.08;100678.13;7394448;19;1576;-38
2023/09/21 12:20:44;;;;;;;;;;;;;;;24.79;51.78;100708.59;7391454;19;1719;-38
2023/09/21 12:23:12;;;;;;;;;;;;;;;24.90;51.64;100701.94;7393611;19;1956;-37
2023/09/21 12:25:41;;;;;;;;;;;;;;;24.89;51.49;100696.69;7395312;19;1833;-37
2023/09/21 12:28:11;;;;;;;;;;;;;;;24.89;51.16;100689.44;7393758;19;1572;-37
2023/09/21 12:30:42;;;;;;;;;;;;;;;24.86;50.60;100697.06;7395722;19;1347;-38
2023/09/21 12:33:11;;;;;;;;;;;;;;;24.90;50.88;100696.50;7378645;19;1587;-37
2023/09/21 12:35:40;;;;;;;;;;;;;;;24.99;51.20;100692.75;7394850;19;1767;-37
2023/09/21 12:38:08;;;;;;;;;;;;;;;24.97;51.92;100683.97;7393065;19;1916;-37
2023/09/21 12:40:36;;;;;;;;;;;;;;;24.97;50.52;100675.88;7392782;19;1801;-38
2023/09/21 12:43:05;;;;;;;;;;;;;;;25.02;50.88;100684.28;7393701;19;1350;-37
2023/09/21 12:45:35;;;;;;;;;;;;;;;25.04;49.94;100669.75;7394776;19;1703;-37
2023/09/21 12:48:08;;;;;;;;;;;;;;;25.09;49.37;100684.44;7392069;19;1851;-37
2023/09/21 12:50:37;;;;;;;;;;;;;;;24.99;50.45;100673.81;7393398;19;1590;-37
2023/09/21 12:53:06;;;;;;;;;;;;;;;25.06;50.47;100678.53;7393166;19;1730;-37
2023/09/21 12:55:35;;;;;;;;;;;;;;;25.09;51.13;100684.44;7391300;19;1396;-37
2023/09/21 12:58:06;;;;;;;;;;;;;;;25.11;51.41;100666.16;7394118;19;1488;-37